sensor_id;sensor_type;location;lat;lon;timestamp;P1;durP1;ratioP1;P2;durP2;ratioP2
22665;SDS011;11499;49.486;11.104;2022-10-15T00:02:06;5.33;;;4.50;;
22665;SDS011;11499;49.486;11.104;2022-10-15T00:06:26;5.07;;;3.90;;
22665;SDS011;11499;49.486;11.104;2022-10-15T00:08:51;5.83;;;3.90;;
22665;SDS011;11499;49.486;11.104;2022-10-15T00:11:20;5.30;;;3.90;;
22665;SDS011;11499;49.486;11.104;2022-10-15T00:13:48;6.17;;;3.70;;
22665;SDS011;11499;49.486;11.104;2022-10-15T00:16:18;4.30;;;3.90;;
22665;SDS011;11499;49.486;11.104;2022-10-15T00:18:46;4.17;;;3.80;;
22665;SDS011;11499;49.486;11.104;2022-10-15T00:21:13;5.00;;;3.70;;
22665;SDS011;11499;49.486;11.104;2022-10-15T00:23:42;4.43;;;4.03;;
22665;SDS011;11499;49.486;11.104;2022-10-15T00:26:09;8.23;;;3.80;;
22665;SDS011;11499;49.486;11.104;2022-10-15T00:28:39;3.83;;;3.47;;
22665;SDS011;11499;49.486;11.104;2022-10-15T00:31:06;3.90;;;3.60;;
22665;SDS011;11499;49.486;11.104;2022-10-15T00:33:34;4.00;;;3.70;;
22665;SDS011;11499;49.486;11.104;2022-10-15T00:39:24;3.83;;;3.53;;
22665;SDS011;11499;49.486;11.104;2022-10-15T00:41:49;3.80;;;3.50;;
22665;SDS011;11499;49.486;11.104;2022-10-15T00:46:55;4.40;;;3.50;;
22665;SDS011;11499;49.486;11.104;2022-10-15T00:49:41;4.10;;;3.70;;
22665;SDS011;11499;49.486;11.104;2022-10-15T00:52:13;4.00;;;3.27;;
22665;SDS011;11499;49.486;11.104;2022-10-15T00:54:44;6.67;;;3.77;;
22665;SDS011;11499;49.486;11.104;2022-10-15T00:57:13;4.50;;;3.50;;
22665;SDS011;11499;49.486;11.104;2022-10-15T00:59:46;3.77;;;3.47;;
22665;SDS011;11499;49.486;11.104;2022-10-15T01:02:14;4.60;;;3.40;;
22665;SDS011;11499;49.486;11.104;2022-10-15T01:07:19;3.43;;;3.10;;
22665;SDS011;11499;49.486;11.104;2022-10-15T01:09:44;3.53;;;3.23;;
22665;SDS011;11499;49.486;11.104;2022-10-15T01:12:11;3.97;;;3.40;;
22665;SDS011;11499;49.486;11.104;2022-10-15T01:20:17;4.87;;;3.50;;
22665;SDS011;11499;49.486;11.104;2022-10-15T01:26:06;3.47;;;3.17;;
22665;SDS011;11499;49.486;11.104;2022-10-15T01:29:03;3.37;;;3.07;;
22665;SDS011;11499;49.486;11.104;2022-10-15T01:34:32;6.13;;;3.27;;
22665;SDS011;11499;49.486;11.104;2022-10-15T01:37:10;3.33;;;3.03;;
22665;SDS011;11499;49.486;11.104;2022-10-15T01:40:16;3.60;;;3.30;;
22665;SDS011;11499;49.486;11.104;2022-10-15T01:42:52;4.03;;;3.43;;
22665;SDS011;11499;49.486;11.104;2022-10-15T01:45:22;3.10;;;2.80;;
22665;SDS011;11499;49.486;11.104;2022-10-15T01:47:54;3.27;;;2.97;;
22665;SDS011;11499;49.486;11.104;2022-10-15T01:50:22;4.57;;;3.70;;
22665;SDS011;11499;49.486;11.104;2022-10-15T01:52:51;3.20;;;2.90;;
22665;SDS011;11499;49.486;11.104;2022-10-15T01:55:20;4.67;;;3.53;;
22665;SDS011;11499;49.486;11.104;2022-10-15T02:00:56;4.37;;;3.10;;
22665;SDS011;11499;49.486;11.104;2022-10-15T02:03:23;4.17;;;3.03;;
22665;SDS011;11499;49.486;11.104;2022-10-15T02:05:53;3.33;;;3.00;;
22665;SDS011;11499;49.486;11.104;2022-10-15T02:08:47;3.40;;;2.80;;
22665;SDS011;11499;49.486;11.104;2022-10-15T02:11:28;4.97;;;3.10;;
22665;SDS011;11499;49.486;11.104;2022-10-15T02:17:08;5.27;;;3.07;;
22665;SDS011;11499;49.486;11.104;2022-10-15T02:22:16;3.50;;;3.20;;
22665;SDS011;11499;49.486;11.104;2022-10-15T02:28:03;3.90;;;2.97;;
22665;SDS011;11499;49.486;11.104;2022-10-15T02:30:29;3.00;;;2.70;;
22665;SDS011;11499;49.486;11.104;2022-10-15T02:32:57;3.03;;;2.73;;
22665;SDS011;11499;49.486;11.104;2022-10-15T02:35:24;2.70;;;2.33;;
22665;SDS011;11499;49.486;11.104;2022-10-15T02:37:51;3.23;;;2.93;;
22665;SDS011;11499;49.486;11.104;2022-10-15T02:40:20;4.80;;;2.70;;
22665;SDS011;11499;49.486;11.104;2022-10-15T02:42:49;2.60;;;2.40;;
22665;SDS011;11499;49.486;11.104;2022-10-15T02:45:15;3.00;;;2.40;;
22665;SDS011;11499;49.486;11.104;2022-10-15T02:47:41;4.27;;;2.10;;
22665;SDS011;11499;49.486;11.104;2022-10-15T02:50:06;2.63;;;2.43;;
22665;SDS011;11499;49.486;11.104;2022-10-15T02:55:07;2.23;;;2.03;;
22665;SDS011;11499;49.486;11.104;2022-10-15T02:57:32;4.47;;;2.40;;
22665;SDS011;11499;49.486;11.104;2022-10-15T02:59:58;2.57;;;2.23;;
22665;SDS011;11499;49.486;11.104;2022-10-15T03:02:24;3.13;;;1.93;;
22665;SDS011;11499;49.486;11.104;2022-10-15T03:04:49;2.30;;;1.80;;
22665;SDS011;11499;49.486;11.104;2022-10-15T03:07:15;2.80;;;1.87;;
22665;SDS011;11499;49.486;11.104;2022-10-15T03:09:40;1.70;;;1.60;;
22665;SDS011;11499;49.486;11.104;2022-10-15T03:12:06;2.33;;;1.87;;
22665;SDS011;11499;49.486;11.104;2022-10-15T03:14:31;3.30;;;1.90;;
22665;SDS011;11499;49.486;11.104;2022-10-15T03:16:57;3.63;;;1.73;;
22665;SDS011;11499;49.486;11.104;2022-10-15T03:22:23;1.80;;;1.70;;
22665;SDS011;11499;49.486;11.104;2022-10-15T03:24:49;2.37;;;2.17;;
22665;SDS011;11499;49.486;11.104;2022-10-15T03:27:14;1.70;;;1.60;;
22665;SDS011;11499;49.486;11.104;2022-10-15T03:29:40;2.90;;;1.80;;
22665;SDS011;11499;49.486;11.104;2022-10-15T03:32:05;2.13;;;1.63;;
22665;SDS011;11499;49.486;11.104;2022-10-15T03:34:31;1.93;;;1.60;;
22665;SDS011;11499;49.486;11.104;2022-10-15T03:36:56;1.90;;;1.70;;
22665;SDS011;11499;49.486;11.104;2022-10-15T03:39:22;1.73;;;1.63;;
22665;SDS011;11499;49.486;11.104;2022-10-15T03:41:47;2.47;;;1.83;;
22665;SDS011;11499;49.486;11.104;2022-10-15T03:44:16;3.53;;;1.50;;
22665;SDS011;11499;49.486;11.104;2022-10-15T03:48:38;1.97;;;1.77;;
22665;SDS011;11499;49.486;11.104;2022-10-15T03:51:04;4.30;;;1.70;;
22665;SDS011;11499;49.486;11.104;2022-10-15T03:53:29;2.03;;;1.70;;
22665;SDS011;11499;49.486;11.104;2022-10-15T03:55:55;1.90;;;1.67;;
22665;SDS011;11499;49.486;11.104;2022-10-15T03:58:26;1.93;;;1.70;;
22665;SDS011;11499;49.486;11.104;2022-10-15T04:00:51;1.90;;;1.70;;
22665;SDS011;11499;49.486;11.104;2022-10-15T04:03:17;2.00;;;1.80;;
22665;SDS011;11499;49.486;11.104;2022-10-15T04:05:48;1.70;;;1.60;;
22665;SDS011;11499;49.486;11.104;2022-10-15T04:08:15;2.33;;;1.60;;
22665;SDS011;11499;49.486;11.104;2022-10-15T04:10:40;1.93;;;1.70;;
22665;SDS011;11499;49.486;11.104;2022-10-15T04:15:47;2.13;;;1.80;;
22665;SDS011;11499;49.486;11.104;2022-10-15T04:18:13;1.70;;;1.60;;
22665;SDS011;11499;49.486;11.104;2022-10-15T04:20:38;1.97;;;1.73;;
22665;SDS011;11499;49.486;11.104;2022-10-15T04:23:06;2.33;;;1.83;;
22665;SDS011;11499;49.486;11.104;2022-10-15T04:25:32;2.10;;;1.60;;
22665;SDS011;11499;49.486;11.104;2022-10-15T04:27:57;3.07;;;1.87;;
22665;SDS011;11499;49.486;11.104;2022-10-15T04:30:23;1.70;;;1.60;;
22665;SDS011;11499;49.486;11.104;2022-10-15T04:32:50;3.70;;;1.60;;
22665;SDS011;11499;49.486;11.104;2022-10-15T04:35:16;3.93;;;1.80;;
22665;SDS011;11499;49.486;11.104;2022-10-15T04:37:42;1.70;;;1.60;;
22665;SDS011;11499;49.486;11.104;2022-10-15T04:43:07;2.23;;;2.07;;
22665;SDS011;11499;49.486;11.104;2022-10-15T04:45:33;1.80;;;1.70;;
22665;SDS011;11499;49.486;11.104;2022-10-15T04:47:58;3.03;;;1.83;;
22665;SDS011;11499;49.486;11.104;2022-10-15T04:50:24;2.53;;;2.07;;
22665;SDS011;11499;49.486;11.104;2022-10-15T04:52:49;3.83;;;1.80;;
22665;SDS011;11499;49.486;11.104;2022-10-15T04:55:15;2.07;;;1.87;;
22665;SDS011;11499;49.486;11.104;2022-10-15T04:57:40;1.93;;;1.77;;
22665;SDS011;11499;49.486;11.104;2022-10-15T05:00:06;2.20;;;2.00;;
22665;SDS011;11499;49.486;11.104;2022-10-15T05:02:32;1.90;;;1.80;;
22665;SDS011;11499;49.486;11.104;2022-10-15T05:04:58;3.70;;;1.90;;
22665;SDS011;11499;49.486;11.104;2022-10-15T05:09:57;3.33;;;2.10;;
22665;SDS011;11499;49.486;11.104;2022-10-15T05:12:23;2.30;;;2.10;;
22665;SDS011;11499;49.486;11.104;2022-10-15T05:14:48;3.30;;;2.10;;
22665;SDS011;11499;49.486;11.104;2022-10-15T05:17:14;4.10;;;2.50;;
22665;SDS011;11499;49.486;11.104;2022-10-15T05:19:39;2.53;;;2.30;;
22665;SDS011;11499;49.486;11.104;2022-10-15T05:22:05;4.13;;;2.30;;
22665;SDS011;11499;49.486;11.104;2022-10-15T05:24:30;3.47;;;2.30;;
22665;SDS011;11499;49.486;11.104;2022-10-15T05:26:56;3.90;;;2.30;;
22665;SDS011;11499;49.486;11.104;2022-10-15T05:29:21;2.97;;;2.57;;
22665;SDS011;11499;49.486;11.104;2022-10-15T05:31:49;2.80;;;2.60;;
22665;SDS011;11499;49.486;11.104;2022-10-15T05:35:40;5.73;;;2.50;;
22665;SDS011;11499;49.486;11.104;2022-10-15T05:38:06;2.40;;;2.20;;
22665;SDS011;11499;49.486;11.104;2022-10-15T05:40:31;2.27;;;2.07;;
22665;SDS011;11499;49.486;11.104;2022-10-15T05:42:57;3.73;;;2.70;;
22665;SDS011;11499;49.486;11.104;2022-10-15T05:45:22;5.43;;;4.23;;
22665;SDS011;11499;49.486;11.104;2022-10-15T05:47:48;4.37;;;3.33;;
22665;SDS011;11499;49.486;11.104;2022-10-15T05:50:17;3.47;;;2.70;;
22665;SDS011;11499;49.486;11.104;2022-10-15T05:52:43;3.40;;;2.47;;
22665;SDS011;11499;49.486;11.104;2022-10-15T05:55:08;2.60;;;2.40;;
22665;SDS011;11499;49.486;11.104;2022-10-15T05:57:33;2.60;;;2.40;;
22665;SDS011;11499;49.486;11.104;2022-10-15T06:01:40;2.77;;;2.33;;
22665;SDS011;11499;49.486;11.104;2022-10-15T06:04:06;2.50;;;2.30;;
22665;SDS011;11499;49.486;11.104;2022-10-15T06:06:32;2.50;;;2.30;;
22665;SDS011;11499;49.486;11.104;2022-10-15T06:08:57;2.50;;;2.30;;
22665;SDS011;11499;49.486;11.104;2022-10-15T06:11:23;3.23;;;2.27;;
22665;SDS011;11499;49.486;11.104;2022-10-15T06:13:48;2.63;;;2.17;;
22665;SDS011;11499;49.486;11.104;2022-10-15T06:16:15;2.97;;;2.57;;
22665;SDS011;11499;49.486;11.104;2022-10-15T06:18:42;3.50;;;3.10;;
22665;SDS011;11499;49.486;11.104;2022-10-15T06:21:08;3.00;;;2.70;;
22665;SDS011;11499;49.486;11.104;2022-10-15T06:23:35;3.37;;;2.30;;
22665;SDS011;11499;49.486;11.104;2022-10-15T06:29:03;2.90;;;2.70;;
22665;SDS011;11499;49.486;11.104;2022-10-15T06:31:29;2.90;;;2.60;;
22665;SDS011;11499;49.486;11.104;2022-10-15T06:33:55;2.90;;;2.50;;
22665;SDS011;11499;49.486;11.104;2022-10-15T06:36:21;4.27;;;2.40;;
22665;SDS011;11499;49.486;11.104;2022-10-15T06:38:48;1.90;;;1.80;;
22665;SDS011;11499;49.486;11.104;2022-10-15T06:41:13;2.57;;;1.90;;
22665;SDS011;11499;49.486;11.104;2022-10-15T06:43:40;2.13;;;1.93;;
22665;SDS011;11499;49.486;11.104;2022-10-15T06:46:06;2.83;;;2.33;;
22665;SDS011;11499;49.486;11.104;2022-10-15T06:48:31;2.97;;;2.00;;
22665;SDS011;11499;49.486;11.104;2022-10-15T06:53:59;6.60;;;2.20;;
22665;SDS011;11499;49.486;11.104;2022-10-15T06:56:25;2.87;;;2.57;;
22665;SDS011;11499;49.486;11.104;2022-10-15T06:58:50;2.93;;;2.20;;
22665;SDS011;11499;49.486;11.104;2022-10-15T07:01:16;2.03;;;1.83;;
22665;SDS011;11499;49.486;11.104;2022-10-15T07:03:41;3.07;;;2.70;;
22665;SDS011;11499;49.486;11.104;2022-10-15T07:06:08;2.63;;;2.30;;
22665;SDS011;11499;49.486;11.104;2022-10-15T07:08:34;2.40;;;1.90;;
22665;SDS011;11499;49.486;11.104;2022-10-15T07:11:01;2.67;;;2.30;;
22665;SDS011;11499;49.486;11.104;2022-10-15T07:13:28;5.03;;;4.47;;
22665;SDS011;11499;49.486;11.104;2022-10-15T07:15:54;3.20;;;2.90;;
22665;SDS011;11499;49.486;11.104;2022-10-15T07:21:21;2.40;;;2.20;;
22665;SDS011;11499;49.486;11.104;2022-10-15T07:23:47;3.22;;;2.72;;
22665;SDS011;11499;49.486;11.104;2022-10-15T07:26:13;2.55;;;2.35;;
22665;SDS011;11499;49.486;11.104;2022-10-15T07:28:38;2.85;;;2.50;;
22665;SDS011;11499;49.486;11.104;2022-10-15T07:31:05;4.32;;;2.10;;
22665;SDS011;11499;49.486;11.104;2022-10-15T07:33:31;2.55;;;2.35;;
22665;SDS011;11499;49.486;11.104;2022-10-15T07:36:00;2.35;;;2.13;;
22665;SDS011;11499;49.486;11.104;2022-10-15T07:38:27;2.70;;;2.50;;
22665;SDS011;11499;49.486;11.104;2022-10-15T07:40:56;2.85;;;2.65;;
22665;SDS011;11499;49.486;11.104;2022-10-15T07:43:22;2.83;;;2.47;;
22665;SDS011;11499;49.486;11.104;2022-10-15T07:48:44;3.08;;;2.78;;
22665;SDS011;11499;49.486;11.104;2022-10-15T07:51:10;2.92;;;2.72;;
22665;SDS011;11499;49.486;11.104;2022-10-15T07:53:36;3.25;;;2.30;;
22665;SDS011;11499;49.486;11.104;2022-10-15T07:56:03;3.33;;;2.50;;
22665;SDS011;11499;49.486;11.104;2022-10-15T07:58:31;3.88;;;2.42;;
22665;SDS011;11499;49.486;11.104;2022-10-15T08:01:02;2.38;;;2.17;;
22665;SDS011;11499;49.486;11.104;2022-10-15T08:03:29;4.18;;;2.60;;
22665;SDS011;11499;49.486;11.104;2022-10-15T08:05:55;3.80;;;2.58;;
22665;SDS011;11499;49.486;11.104;2022-10-15T08:08:23;2.17;;;1.98;;
22665;SDS011;11499;49.486;11.104;2022-10-15T08:10:48;2.72;;;2.50;;
22665;SDS011;11499;49.486;11.104;2022-10-15T08:15:45;2.80;;;2.60;;
22665;SDS011;11499;49.486;11.104;2022-10-15T08:18:11;2.45;;;2.03;;
22665;SDS011;11499;49.486;11.104;2022-10-15T08:20:36;2.38;;;2.17;;
22665;SDS011;11499;49.486;11.104;2022-10-15T08:23:02;2.50;;;2.30;;
22665;SDS011;11499;49.486;11.104;2022-10-15T08:25:28;3.28;;;2.58;;
22665;SDS011;11499;49.486;11.104;2022-10-15T08:27:56;2.58;;;2.38;;
22665;SDS011;11499;49.486;11.104;2022-10-15T08:30:21;1.77;;;1.50;;
22665;SDS011;11499;49.486;11.104;2022-10-15T08:32:47;1.85;;;1.70;;
22665;SDS011;11499;49.486;11.104;2022-10-15T08:35:12;1.67;;;1.58;;
22665;SDS011;11499;49.486;11.104;2022-10-15T08:37:38;2.10;;;1.60;;
22665;SDS011;11499;49.486;11.104;2022-10-15T08:42:47;1.45;;;1.35;;
22665;SDS011;11499;49.486;11.104;2022-10-15T08:48:10;2.95;;;1.40;;
22665;SDS011;11499;49.486;11.104;2022-10-15T08:50:44;1.65;;;1.55;;
22665;SDS011;11499;49.486;11.104;2022-10-15T08:53:12;1.52;;;1.42;;
22665;SDS011;11499;49.486;11.104;2022-10-15T08:55:47;2.20;;;1.30;;
22665;SDS011;11499;49.486;11.104;2022-10-15T08:58:16;1.45;;;1.35;;
22665;SDS011;11499;49.486;11.104;2022-10-15T09:00:59;1.95;;;1.42;;
22665;SDS011;11499;49.486;11.104;2022-10-15T09:03:43;2.00;;;1.45;;
22665;SDS011;11499;49.486;11.104;2022-10-15T09:09:36;3.25;;;2.20;;
22665;SDS011;11499;49.486;11.104;2022-10-15T09:15:16;1.85;;;1.15;;
22665;SDS011;11499;49.486;11.104;2022-10-15T09:17:43;1.40;;;1.30;;
22665;SDS011;11499;49.486;11.104;2022-10-15T09:20:18;1.55;;;1.20;;
22665;SDS011;11499;49.486;11.104;2022-10-15T09:23:08;1.40;;;1.30;;
22665;SDS011;11499;49.486;11.104;2022-10-15T09:25:41;3.17;;;1.40;;
22665;SDS011;11499;49.486;11.104;2022-10-15T09:28:13;1.30;;;1.20;;
22665;SDS011;11499;49.486;11.104;2022-10-15T09:30:46;1.52;;;1.33;;
22665;SDS011;11499;49.486;11.104;2022-10-15T09:33:23;1.55;;;1.35;;
22665;SDS011;11499;49.486;11.104;2022-10-15T09:36:46;1.30;;;1.20;;
22665;SDS011;11499;49.486;11.104;2022-10-15T09:44:33;2.08;;;1.60;;
22665;SDS011;11499;49.486;11.104;2022-10-15T09:47:02;1.65;;;1.42;;
22665;SDS011;11499;49.486;11.104;2022-10-15T09:49:41;1.92;;;1.70;;
22665;SDS011;11499;49.486;11.104;2022-10-15T09:55:07;1.63;;;1.52;;
22665;SDS011;11499;49.486;11.104;2022-10-15T09:57:55;1.40;;;1.30;;
22665;SDS011;11499;49.486;11.104;2022-10-15T10:00:29;1.55;;;1.45;;
22665;SDS011;11499;49.486;11.104;2022-10-15T10:03:40;1.80;;;1.70;;
22665;SDS011;11499;49.486;11.104;2022-10-15T10:06:10;2.67;;;2.47;;
22665;SDS011;11499;49.486;11.104;2022-10-15T10:08:51;2.60;;;1.60;;
22665;SDS011;11499;49.486;11.104;2022-10-15T10:11:19;1.67;;;1.52;;
22665;SDS011;11499;49.486;11.104;2022-10-15T10:16:12;1.55;;;1.45;;
22665;SDS011;11499;49.486;11.104;2022-10-15T10:18:39;1.60;;;1.50;;
22665;SDS011;11499;49.486;11.104;2022-10-15T10:21:07;2.13;;;1.58;;
22665;SDS011;11499;49.486;11.104;2022-10-15T10:23:50;3.20;;;2.03;;
22665;SDS011;11499;49.486;11.104;2022-10-15T10:26:16;1.60;;;1.50;;
22665;SDS011;11499;49.486;11.104;2022-10-15T10:31:29;2.67;;;2.13;;
22665;SDS011;11499;49.486;11.104;2022-10-15T10:33:59;3.63;;;1.98;;
22665;SDS011;11499;49.486;11.104;2022-10-15T10:36:27;2.17;;;1.98;;
22665;SDS011;11499;49.486;11.104;2022-10-15T10:38:57;3.33;;;2.83;;
22665;SDS011;11499;49.486;11.104;2022-10-15T10:44:31;2.60;;;2.45;;
22665;SDS011;11499;49.486;11.104;2022-10-15T10:49:40;2.78;;;2.67;;
22665;SDS011;11499;49.486;11.104;2022-10-15T10:52:18;2.83;;;2.60;;
22665;SDS011;11499;49.486;11.104;2022-10-15T10:56:52;2.50;;;2.40;;
22665;SDS011;11499;49.486;11.104;2022-10-15T10:59:24;3.15;;;2.95;;
22665;SDS011;11499;49.486;11.104;2022-10-15T11:02:00;2.90;;;2.70;;
22665;SDS011;11499;49.486;11.104;2022-10-15T11:04:29;3.30;;;3.10;;
22665;SDS011;11499;49.486;11.104;2022-10-15T11:07:04;4.28;;;3.97;;
22665;SDS011;11499;49.486;11.104;2022-10-15T11:09:59;3.92;;;3.40;;
22665;SDS011;11499;49.486;11.104;2022-10-15T11:17:56;2.92;;;2.80;;
22665;SDS011;11499;49.486;11.104;2022-10-15T11:32:38;2.30;;;2.20;;
22665;SDS011;11499;49.486;11.104;2022-10-15T11:35:22;2.70;;;2.17;;
22665;SDS011;11499;49.486;11.104;2022-10-15T11:38:22;1.85;;;1.75;;
22665;SDS011;11499;49.486;11.104;2022-10-15T11:52:26;1.90;;;1.80;;
22665;SDS011;11499;49.486;11.104;2022-10-15T11:57:43;2.13;;;2.03;;
22665;SDS011;11499;49.486;11.104;2022-10-15T12:03:01;1.85;;;1.75;;
22665;SDS011;11499;49.486;11.104;2022-10-15T12:05:36;2.97;;;2.78;;
22665;SDS011;11499;49.486;11.104;2022-10-15T12:08:08;2.15;;;2.05;;
22665;SDS011;11499;49.486;11.104;2022-10-15T12:16:07;2.00;;;1.90;;
22665;SDS011;11499;49.486;11.104;2022-10-15T12:27:15;1.85;;;1.67;;
22665;SDS011;11499;49.486;11.104;2022-10-15T12:32:27;1.60;;;1.50;;
22665;SDS011;11499;49.486;11.104;2022-10-15T12:37:39;2.15;;;1.85;;
22665;SDS011;11499;49.486;11.104;2022-10-15T12:43:01;2.03;;;1.85;;
22665;SDS011;11499;49.486;11.104;2022-10-15T12:45:39;2.25;;;1.83;;
22665;SDS011;11499;49.486;11.104;2022-10-15T12:50:46;3.08;;;1.60;;
22665;SDS011;11499;49.486;11.104;2022-10-15T12:53:28;2.70;;;1.85;;
22665;SDS011;11499;49.486;11.104;2022-10-15T12:56:43;1.45;;;1.35;;
22665;SDS011;11499;49.486;11.104;2022-10-15T12:58:52;1.60;;;1.50;;
22665;SDS011;11499;49.486;11.104;2022-10-15T13:10:52;2.17;;;1.38;;
22665;SDS011;11499;49.486;11.104;2022-10-15T13:13:25;1.95;;;1.60;;
22665;SDS011;11499;49.486;11.104;2022-10-15T13:15:58;2.17;;;1.75;;
22665;SDS011;11499;49.486;11.104;2022-10-15T13:18:25;1.55;;;1.38;;
22665;SDS011;11499;49.486;11.104;2022-10-15T13:20:53;4.38;;;1.70;;
22665;SDS011;11499;49.486;11.104;2022-10-15T13:23:21;2.20;;;1.52;;
22665;SDS011;11499;49.486;11.104;2022-10-15T13:25:50;2.53;;;1.58;;
22665;SDS011;11499;49.486;11.104;2022-10-15T13:28:29;1.40;;;1.30;;
22665;SDS011;11499;49.486;11.104;2022-10-15T13:30:54;1.27;;;1.25;;
22665;SDS011;11499;49.486;11.104;2022-10-15T13:33:20;2.20;;;1.27;;
22665;SDS011;11499;49.486;11.104;2022-10-15T13:38:28;1.73;;;1.63;;
22665;SDS011;11499;49.486;11.104;2022-10-15T13:40:53;2.05;;;1.63;;
22665;SDS011;11499;49.486;11.104;2022-10-15T13:43:20;2.13;;;2.03;;
22665;SDS011;11499;49.486;11.104;2022-10-15T13:45:49;3.10;;;1.75;;
22665;SDS011;11499;49.486;11.104;2022-10-15T13:48:20;1.95;;;1.58;;
22665;SDS011;11499;49.486;11.104;2022-10-15T13:50:47;3.85;;;2.03;;
22665;SDS011;11499;49.486;11.104;2022-10-15T13:53:21;1.90;;;1.80;;
22665;SDS011;11499;49.486;11.104;2022-10-15T13:55:56;1.75;;;1.65;;
22665;SDS011;11499;49.486;11.104;2022-10-15T13:58:27;2.83;;;1.50;;
22665;SDS011;11499;49.486;11.104;2022-10-15T14:01:12;2.75;;;1.25;;
22665;SDS011;11499;49.486;11.104;2022-10-15T14:05:51;2.70;;;2.05;;
22665;SDS011;11499;49.486;11.104;2022-10-15T14:08:20;1.40;;;1.30;;
22665;SDS011;11499;49.486;11.104;2022-10-15T14:10:47;2.35;;;1.23;;
22665;SDS011;11499;49.486;11.104;2022-10-15T14:13:15;2.00;;;1.20;;
22665;SDS011;11499;49.486;11.104;2022-10-15T14:15:46;1.30;;;1.20;;
22665;SDS011;11499;49.486;11.104;2022-10-15T14:18:17;3.03;;;1.30;;
22665;SDS011;11499;49.486;11.104;2022-10-15T14:20:51;1.60;;;1.25;;
22665;SDS011;11499;49.486;11.104;2022-10-15T14:23:22;1.50;;;1.20;;
22665;SDS011;11499;49.486;11.104;2022-10-15T14:25:56;4.18;;;1.50;;
22665;SDS011;11499;49.486;11.104;2022-10-15T14:28:26;1.50;;;1.10;;
22665;SDS011;11499;49.486;11.104;2022-10-15T14:36:44;3.10;;;1.30;;
22665;SDS011;11499;49.486;11.104;2022-10-15T14:41:55;1.60;;;1.48;;
22665;SDS011;11499;49.486;11.104;2022-10-15T14:44:34;2.05;;;1.40;;
22665;SDS011;11499;49.486;11.104;2022-10-15T14:47:04;1.60;;;1.50;;
22665;SDS011;11499;49.486;11.104;2022-10-15T14:49:30;1.50;;;1.40;;
22665;SDS011;11499;49.486;11.104;2022-10-15T14:51:59;2.10;;;1.90;;
22665;SDS011;11499;49.486;11.104;2022-10-15T14:54:40;2.47;;;1.45;;
22665;SDS011;11499;49.486;11.104;2022-10-15T14:59:13;1.75;;;1.50;;
22665;SDS011;11499;49.486;11.104;2022-10-15T15:01:53;3.70;;;2.47;;
22665;SDS011;11499;49.486;11.104;2022-10-15T15:04:36;2.83;;;2.40;;
22665;SDS011;11499;49.486;11.104;2022-10-15T15:07:15;1.50;;;1.40;;
22665;SDS011;11499;49.486;11.104;2022-10-15T15:09:45;2.20;;;1.30;;
22665;SDS011;11499;49.486;11.104;2022-10-15T15:12:19;2.13;;;1.40;;
22665;SDS011;11499;49.486;11.104;2022-10-15T15:14:47;1.42;;;1.30;;
22665;SDS011;11499;49.486;11.104;2022-10-15T15:17:13;1.63;;;1.52;;
22665;SDS011;11499;49.486;11.104;2022-10-15T15:19:41;1.70;;;1.33;;
22665;SDS011;11499;49.486;11.104;2022-10-15T15:22:08;1.70;;;1.60;;
22665;SDS011;11499;49.486;11.104;2022-10-15T15:27:16;1.73;;;1.63;;
22665;SDS011;11499;49.486;11.104;2022-10-15T15:29:49;1.77;;;1.38;;
22665;SDS011;11499;49.486;11.104;2022-10-15T15:32:15;2.15;;;1.52;;
22665;SDS011;11499;49.486;11.104;2022-10-15T15:34:41;2.13;;;1.92;;
22665;SDS011;11499;49.486;11.104;2022-10-15T15:37:13;2.63;;;1.65;;
22665;SDS011;11499;49.486;11.104;2022-10-15T15:39:44;3.45;;;1.70;;
22665;SDS011;11499;49.486;11.104;2022-10-15T15:42:10;3.70;;;1.77;;
22665;SDS011;11499;49.486;11.104;2022-10-15T15:44:37;3.08;;;1.60;;
22665;SDS011;11499;49.486;11.104;2022-10-15T15:47:03;1.70;;;1.60;;
22665;SDS011;11499;49.486;11.104;2022-10-15T15:49:29;2.60;;;1.95;;
22665;SDS011;11499;49.486;11.104;2022-10-15T15:54:29;2.55;;;2.17;;
22665;SDS011;11499;49.486;11.104;2022-10-15T15:56:54;3.58;;;2.20;;
22665;SDS011;11499;49.486;11.104;2022-10-15T15:59:20;3.83;;;2.00;;
22665;SDS011;11499;49.486;11.104;2022-10-15T16:01:45;3.70;;;1.85;;
22665;SDS011;11499;49.486;11.104;2022-10-15T16:04:11;2.10;;;1.90;;
22665;SDS011;11499;49.486;11.104;2022-10-15T16:06:37;2.72;;;2.20;;
22665;SDS011;11499;49.486;11.104;2022-10-15T16:09:03;5.50;;;2.35;;
22665;SDS011;11499;49.486;11.104;2022-10-15T16:11:29;2.92;;;2.10;;
22665;SDS011;11499;49.486;11.104;2022-10-15T16:13:56;2.10;;;1.95;;
22665;SDS011;11499;49.486;11.104;2022-10-15T16:16:22;3.38;;;1.77;;
22665;SDS011;11499;49.486;11.104;2022-10-15T16:21:47;3.17;;;2.67;;
22665;SDS011;11499;49.486;11.104;2022-10-15T16:24:12;2.33;;;2.13;;
22665;SDS011;11499;49.486;11.104;2022-10-15T16:26:38;2.85;;;1.85;;
22665;SDS011;11499;49.486;11.104;2022-10-15T16:29:03;3.35;;;1.73;;
22665;SDS011;11499;49.486;11.104;2022-10-15T16:31:29;3.25;;;1.85;;
22665;SDS011;11499;49.486;11.104;2022-10-15T16:33:56;1.92;;;1.70;;
22665;SDS011;11499;49.486;11.104;2022-10-15T16:36:22;3.50;;;2.70;;
22665;SDS011;11499;49.486;11.104;2022-10-15T16:38:48;2.50;;;1.70;;
22665;SDS011;11499;49.486;11.104;2022-10-15T16:41:14;2.58;;;2.00;;
22665;SDS011;11499;49.486;11.104;2022-10-15T16:43:42;3.30;;;1.77;;
22665;SDS011;11499;49.486;11.104;2022-10-15T16:48:56;2.13;;;1.80;;
22665;SDS011;11499;49.486;11.104;2022-10-15T16:51:23;2.78;;;1.63;;
22665;SDS011;11499;49.486;11.104;2022-10-15T16:53:49;2.63;;;1.60;;
22665;SDS011;11499;49.486;11.104;2022-10-15T16:56:17;3.65;;;1.70;;
22665;SDS011;11499;49.486;11.104;2022-10-15T16:58:45;2.30;;;1.40;;
22665;SDS011;11499;49.486;11.104;2022-10-15T17:01:12;1.67;;;1.30;;
22665;SDS011;11499;49.486;11.104;2022-10-15T17:03:40;2.05;;;1.50;;
22665;SDS011;11499;49.486;11.104;2022-10-15T17:06:07;1.75;;;1.50;;
22665;SDS011;11499;49.486;11.104;2022-10-15T17:08:39;2.67;;;1.50;;
22665;SDS011;11499;49.486;11.104;2022-10-15T17:13:55;2.17;;;1.58;;
22665;SDS011;11499;49.486;11.104;2022-10-15T17:18:50;1.48;;;1.38;;
22665;SDS011;11499;49.486;11.104;2022-10-15T17:21:18;3.05;;;1.65;;
22665;SDS011;11499;49.486;11.104;2022-10-15T17:23:46;4.38;;;1.70;;
22665;SDS011;11499;49.486;11.104;2022-10-15T17:26:15;2.53;;;1.75;;
22665;SDS011;11499;49.486;11.104;2022-10-15T17:28:42;4.90;;;2.17;;
22665;SDS011;11499;49.486;11.104;2022-10-15T17:31:10;2.40;;;2.20;;
22665;SDS011;11499;49.486;11.104;2022-10-15T17:33:37;3.25;;;1.90;;
22665;SDS011;11499;49.486;11.104;2022-10-15T17:36:08;2.03;;;1.60;;
22665;SDS011;11499;49.486;11.104;2022-10-15T17:38:36;3.33;;;1.80;;
22665;SDS011;11499;49.486;11.104;2022-10-15T17:42:25;2.97;;;1.60;;
22665;SDS011;11499;49.486;11.104;2022-10-15T17:44:50;4.82;;;1.60;;
22665;SDS011;11499;49.486;11.104;2022-10-15T17:47:16;3.97;;;1.70;;
22665;SDS011;11499;49.486;11.104;2022-10-15T17:49:41;2.53;;;1.63;;
22665;SDS011;11499;49.486;11.104;2022-10-15T17:52:07;4.32;;;2.05;;
22665;SDS011;11499;49.486;11.104;2022-10-15T17:54:33;3.35;;;1.77;;
22665;SDS011;11499;49.486;11.104;2022-10-15T17:56:59;3.90;;;1.80;;
22665;SDS011;11499;49.486;11.104;2022-10-15T17:59:24;2.47;;;1.50;;
22665;SDS011;11499;49.486;11.104;2022-10-15T18:01:50;1.52;;;1.42;;
22665;SDS011;11499;49.486;11.104;2022-10-15T18:04:16;3.58;;;1.60;;
22665;SDS011;11499;49.486;11.104;2022-10-15T18:10:02;3.33;;;1.83;;
22665;SDS011;11499;49.486;11.104;2022-10-15T18:12:28;2.30;;;1.75;;